Belokany, Azerbaijan

02:45 PM +04 am 22. Februar 2017 (GMT +0400)
Zakataly | | Change Station

Höhe 1280 ft 41.56 °N, 46.67 °E | Updated 1 hour ago

Heiter
Heiter
55 °F
gefühlte 55 °F
N
12
Wind Wechselnd Wind aus West

Heute
Max. -- | schwach -- °F
--% Regenrisiko
Gestern
Max. -- | schwach -- °F
Precip. -- inch
Druck 30.01 inch
Sichtweite 6.2 Meilen
Wolken Teils Wolkig 10000 ft
Taupunkt 21 °F
Feuchtigkeit 26%
Regen 0.00 inch
Schneehöhe Nicht verfügbar..
7:40 AM 6:36 PM
Letztes Viertel, 18% visible
METAR UBBY 220900Z 28010KT 9999 SCT100 13/M06 Q1016 R33/////// NOSIG RMK MT OP
Druck 30.01 inch
Sichtweite 6.2 Meilen
Wolken Teils Wolkig 10000 ft
Taupunkt 21 °F
Feuchtigkeit 26%
Regen 0.00 inch
Schneehöhe Nicht verfügbar..
7:40 AM 6:36 PM
Letztes Viertel, 18% visible
METAR UBBY 220900Z 28010KT 9999 SCT100 13/M06 Q1016 R33/////// NOSIG RMK MT OP

Get Your Daily Forecast Email!

Thanks for signing up!

Be on the lookout for a verification email in your inbox.

You'll start receiving the daily forecast at 8 AM.

×

10-Day Weather Forecast

No radar image for this location.
×

Almanac

Astronomie

Feb. 22, 2017 Aufgang Untergang
Genaue Zeit
Bürgerliche Dämmerung
Nautische Dämmerung
Astronomische Dämmerung
Mond
Länge des sichtbaren Lichts
Tageslänge
Tomorrow will be .
, % of the Moon is Illuminated

Heutige Rekorde

Country Highs Country Lows

Community

WunderPhotos

Upload Photos

1,962,540 Fotos hochgeladen!

WunderBlog® & News

Nearby

Luftqualität

  Luftqualität LQ Index Schadstoff
Not available.

Schneehöhe

Station Depth Höhe

Erdbebenaktivität

Stadt Distance Mag. Time & Date
Minimum magnitude displayed is 2.5.

küstennahe Wassertemperaturen

Ort Temperatur

Stations

Wetterstationen in der Umgebung

Stationsstandort Temp. Windchill Taupunkt Feuchtigkeit Wind Precip. Höhe Aktualisiert Art